sensor_id;sensor_type;location;lat;lon;timestamp;pressure;altitude;pressure_sealevel;temperature;humidity
70407;BME280;57821;52.202;0.154;2024-03-08T00:00:10;101610.81;;;5.21;86.60
70407;BME280;57821;52.202;0.154;2024-03-08T00:02:43;101610.78;;;5.20;86.39
70407;BME280;57821;52.202;0.154;2024-03-08T00:05:10;101605.78;;;5.24;87.01
70407;BME280;57821;52.202;0.154;2024-03-08T00:07:39;101600.69;;;5.26;86.89
70407;BME280;57821;52.202;0.154;2024-03-08T00:10:07;101601.63;;;5.28;87.25
70407;BME280;57821;52.202;0.154;2024-03-08T00:12:38;101593.09;;;5.29;87.02
70407;BME280;57821;52.202;0.154;2024-03-08T00:15:13;101593.97;;;5.29;88.20
70407;BME280;57821;52.202;0.154;2024-03-08T00:17:43;101589.69;;;5.30;87.24
70407;BME280;57821;52.202;0.154;2024-03-08T00:20:10;101583.69;;;5.31;87.61
70407;BME280;57821;52.202;0.154;2024-03-08T00:22:38;101583.81;;;5.34;87.80
70407;BME280;57821;52.202;0.154;2024-03-08T00:25:06;101581.22;;;5.34;88.40
70407;BME280;57821;52.202;0.154;2024-03-08T00:27:36;101583.84;;;5.35;88.60
70407;BME280;57821;52.202;0.154;2024-03-08T00:30:05;101572.78;;;5.38;88.23
70407;BME280;57821;52.202;0.154;2024-03-08T00:32:32;101576.28;;;5.40;88.40
70407;BME280;57821;52.202;0.154;2024-03-08T00:34:59;101578.97;;;5.45;89.04
70407;BME280;57821;52.202;0.154;2024-03-08T00:37:26;101575.53;;;5.44;89.05
70407;BME280;57821;52.202;0.154;2024-03-08T00:39:52;101574.91;;;5.51;88.84
70407;BME280;57821;52.202;0.154;2024-03-08T00:42:20;101574.97;;;5.54;90.07
70407;BME280;57821;52.202;0.154;2024-03-08T00:44:47;101562.09;;;5.53;89.63
70407;BME280;57821;52.202;0.154;2024-03-08T00:47:18;101568.22;;;5.58;89.34
70407;BME280;57821;52.202;0.154;2024-03-08T00:49:45;101578.66;;;5.62;88.51
70407;BME280;57821;52.202;0.154;2024-03-08T00:52:13;101555.25;;;5.55;88.56
70407;BME280;57821;52.202;0.154;2024-03-08T00:54:40;101569.31;;;5.66;89.19
70407;BME280;57821;52.202;0.154;2024-03-08T00:57:07;101572.88;;;5.69;89.41
70407;BME280;57821;52.202;0.154;2024-03-08T00:59:34;101564.34;;;5.72;88.80
70407;BME280;57821;52.202;0.154;2024-03-08T01:02:01;101567.84;;;5.74;89.65
70407;BME280;57821;52.202;0.154;2024-03-08T01:04:28;101561.06;;;5.77;88.72
70407;BME280;57821;52.202;0.154;2024-03-08T01:06:56;101558.66;;;5.84;89.45
70407;BME280;57821;52.202;0.154;2024-03-08T01:09:24;101548.47;;;5.87;89.92
70407;BME280;57821;52.202;0.154;2024-03-08T01:11:51;101550.34;;;5.91;89.70
70407;BME280;57821;52.202;0.154;2024-03-08T01:14:21;101533.19;;;5.91;88.81
70407;BME280;57821;52.202;0.154;2024-03-08T01:16:52;101539.38;;;5.98;89.35
70407;BME280;57821;52.202;0.154;2024-03-08T01:19:19;101533.41;;;5.99;88.99
70407;BME280;57821;52.202;0.154;2024-03-08T01:21:46;101524.84;;;6.00;88.06
70407;BME280;57821;52.202;0.154;2024-03-08T01:24:12;101531.00;;;6.06;88.29
70407;BME280;57821;52.202;0.154;2024-03-08T01:26:39;101533.75;;;6.11;88.62
70407;BME280;57821;52.202;0.154;2024-03-08T01:29:06;101528.59;;;6.12;88.57
70407;BME280;57821;52.202;0.154;2024-03-08T01:31:33;101508.78;;;6.08;88.33
70407;BME280;57821;52.202;0.154;2024-03-08T01:34:00;101522.78;;;6.19;87.71
70407;BME280;57821;52.202;0.154;2024-03-08T01:36:26;101517.69;;;6.21;87.58
70407;BME280;57821;52.202;0.154;2024-03-08T01:38:53;101510.03;;;6.24;88.66
70407;BME280;57821;52.202;0.154;2024-03-08T01:41:20;101511.78;;;6.25;87.56
70407;BME280;57821;52.202;0.154;2024-03-08T01:43:47;101487.56;;;6.17;87.84
70407;BME280;57821;52.202;0.154;2024-03-08T01:46:18;101498.91;;;6.25;87.87
70407;BME280;57821;52.202;0.154;2024-03-08T01:48:45;101500.75;;;6.31;87.00
70407;BME280;57821;52.202;0.154;2024-03-08T01:51:12;101496.47;;;6.31;87.71
70407;BME280;57821;52.202;0.154;2024-03-08T01:53:42;101506.91;;;6.36;87.15
70407;BME280;57821;52.202;0.154;2024-03-08T01:56:13;101496.59;;;6.36;87.60
70407;BME280;57821;52.202;0.154;2024-03-08T01:58:43;101496.72;;;6.40;86.77
70407;BME280;57821;52.202;0.154;2024-03-08T02:01:12;101480.41;;;6.40;87.42
70407;BME280;57821;52.202;0.154;2024-03-08T02:03:42;101492.56;;;6.45;87.04
70407;BME280;57821;52.202;0.154;2024-03-08T02:06:13;101483.16;;;6.47;87.09
70407;BME280;57821;52.202;0.154;2024-03-08T02:08:43;101488.38;;;6.50;87.08
70407;BME280;57821;52.202;0.154;2024-03-08T02:11:11;101478.13;;;6.53;86.99
70407;BME280;57821;52.202;0.154;2024-03-08T02:13:39;101473.06;;;6.56;87.54
70407;BME280;57821;52.202;0.154;2024-03-08T02:16:06;101473.13;;;6.59;87.59
70407;BME280;57821;52.202;0.154;2024-03-08T02:18:34;101468.91;;;6.62;87.10
70407;BME280;57821;52.202;0.154;2024-03-08T02:21:03;101468.94;;;6.63;87.12
70407;BME280;57821;52.202;0.154;2024-03-08T02:23:31;101451.69;;;6.60;87.08
70407;BME280;57821;52.202;0.154;2024-03-08T02:25:59;101457.91;;;6.70;87.30
70407;BME280;57821;52.202;0.154;2024-03-08T02:28:25;101441.47;;;6.65;87.16
70407;BME280;57821;52.202;0.154;2024-03-08T02:30:52;101452.03;;;6.76;87.08
70407;BME280;57821;52.202;0.154;2024-03-08T02:33:23;101443.56;;;6.80;87.22
70407;BME280;57821;52.202;0.154;2024-03-08T02:35:50;101441.03;;;6.83;86.73
70407;BME280;57821;52.202;0.154;2024-03-08T02:38:19;101437.63;;;6.84;86.45
70407;BME280;57821;52.202;0.154;2024-03-08T02:40:48;101435.13;;;6.87;86.83
70407;BME280;57821;52.202;0.154;2024-03-08T02:43:17;101401.34;;;6.75;86.15
70407;BME280;57821;52.202;0.154;2024-03-08T02:45:48;101427.44;;;6.90;87.08
70407;BME280;57821;52.202;0.154;2024-03-08T02:48:16;101418.88;;;6.91;87.11
70407;BME280;57821;52.202;0.154;2024-03-08T02:50:43;101420.69;;;6.95;86.67
70407;BME280;57821;52.202;0.154;2024-03-08T02:53:12;101410.38;;;6.95;86.71
70407;BME280;57821;52.202;0.154;2024-03-08T02:55:39;101411.28;;;6.97;86.52
70407;BME280;57821;52.202;0.154;2024-03-08T02:58:08;101410.47;;;6.99;86.74
70407;BME280;57821;52.202;0.154;2024-03-08T03:00:38;101401.84;;;6.99;85.96
70407;BME280;57821;52.202;0.154;2024-03-08T03:03:07;101404.50;;;7.02;86.70
70407;BME280;57821;52.202;0.154;2024-03-08T03:05:34;101395.84;;;7.00;85.92
70407;BME280;57821;52.202;0.154;2024-03-08T03:08:01;101401.94;;;7.02;86.65
70407;BME280;57821;52.202;0.154;2024-03-08T03:10:30;101399.38;;;7.04;86.57
70407;BME280;57821;52.202;0.154;2024-03-08T03:12:57;101382.97;;;7.00;85.77
70407;BME280;57821;52.202;0.154;2024-03-08T03:15:24;101380.44;;;7.01;86.26
70407;BME280;57821;52.202;0.154;2024-03-08T03:17:53;101380.47;;;7.03;85.70
70407;BME280;57821;52.202;0.154;2024-03-08T03:20:22;101373.50;;;6.99;85.33
70407;BME280;57821;52.202;0.154;2024-03-08T03:22:59;101370.13;;;7.01;85.89
70407;BME280;57821;52.202;0.154;2024-03-08T03:25:28;101367.50;;;7.00;85.91
70407;BME280;57821;52.202;0.154;2024-03-08T03:28:02;101358.00;;;6.97;84.98
70407;BME280;57821;52.202;0.154;2024-03-08T03:30:30;101356.25;;;6.96;85.93
70407;BME280;57821;52.202;0.154;2024-03-08T03:33:00;101354.47;;;6.94;85.25
70407;BME280;57821;52.202;0.154;2024-03-08T03:35:28;101357.00;;;6.91;84.88
70407;BME280;57821;52.202;0.154;2024-03-08T03:37:56;101351.81;;;6.89;85.81
70407;BME280;57821;52.202;0.154;2024-03-08T03:40:35;101347.44;;;6.85;84.95
70407;BME280;57821;52.202;0.154;2024-03-08T03:43:03;101344.78;;;6.81;84.69
70407;BME280;57821;52.202;0.154;2024-03-08T03:45:30;101343.88;;;6.79;85.08
70407;BME280;57821;52.202;0.154;2024-03-08T03:48:04;101344.66;;;6.75;84.62
70407;BME280;57821;52.202;0.154;2024-03-08T03:50:32;101323.69;;;6.59;84.78
70407;BME280;57821;52.202;0.154;2024-03-08T03:53:02;101339.28;;;6.66;85.02
70407;BME280;57821;52.202;0.154;2024-03-08T03:55:29;101342.63;;;6.62;85.56
70407;BME280;57821;52.202;0.154;2024-03-08T03:57:56;101342.56;;;6.58;84.66
70407;BME280;57821;52.202;0.154;2024-03-08T04:00:25;101335.59;;;6.54;85.43
70407;BME280;57821;52.202;0.154;2024-03-08T04:02:53;101334.72;;;6.54;85.04
70407;BME280;57821;52.202;0.154;2024-03-08T04:05:21;101334.63;;;6.49;85.22
70407;BME280;57821;52.202;0.154;2024-03-08T04:07:48;101332.91;;;6.48;85.57
70407;BME280;57821;52.202;0.154;2024-03-08T04:10:15;101330.28;;;6.45;85.27
70407;BME280;57821;52.202;0.154;2024-03-08T04:12:42;101332.81;;;6.44;85.86
70407;BME280;57821;52.202;0.154;2024-03-08T04:15:09;101323.28;;;6.41;85.55
70407;BME280;57821;52.202;0.154;2024-03-08T04:17:37;101320.69;;;6.40;85.63
70407;BME280;57821;52.202;0.154;2024-03-08T04:20:05;101316.41;;;6.40;85.69
70407;BME280;57821;52.202;0.154;2024-03-08T04:22:37;101319.00;;;6.40;85.83
70407;BME280;57821;52.202;0.154;2024-03-08T04:25:04;101307.81;;;6.41;85.98
70407;BME280;57821;52.202;0.154;2024-03-08T04:27:32;101319.09;;;6.45;86.02
70407;BME280;57821;52.202;0.154;2024-03-08T04:30:00;101306.25;;;6.46;86.87
70407;BME280;57821;52.202;0.154;2024-03-08T04:32:27;101311.44;;;6.49;86.39
70407;BME280;57821;52.202;0.154;2024-03-08T04:34:56;101304.63;;;6.51;86.35
70407;BME280;57821;52.202;0.154;2024-03-08T04:37:23;101295.22;;;6.53;86.80
70407;BME280;57821;52.202;0.154;2024-03-08T04:39:50;101303.03;;;6.56;86.69
70407;BME280;57821;52.202;0.154;2024-03-08T04:42:17;101291.03;;;6.58;86.54
70407;BME280;57821;52.202;0.154;2024-03-08T04:44:44;101286.81;;;6.62;86.17
70407;BME280;57821;52.202;0.154;2024-03-08T04:47:12;101284.22;;;6.60;86.39
70407;BME280;57821;52.202;0.154;2024-03-08T04:49:38;101285.16;;;6.66;86.67
70407;BME280;57821;52.202;0.154;2024-03-08T04:52:05;101288.69;;;6.69;85.76
70407;BME280;57821;52.202;0.154;2024-03-08T04:54:33;101279.22;;;6.68;86.05
70407;BME280;57821;52.202;0.154;2024-03-08T04:57:01;101281.91;;;6.74;86.09
70407;BME280;57821;52.202;0.154;2024-03-08T04:59:32;101277.66;;;6.76;86.05
70407;BME280;57821;52.202;0.154;2024-03-08T05:01:59;101277.69;;;6.78;86.24
70407;BME280;57821;52.202;0.154;2024-03-08T05:04:25;101282.84;;;6.78;86.13
70407;BME280;57821;52.202;0.154;2024-03-08T05:06:52;101282.91;;;6.81;85.31
70407;BME280;57821;52.202;0.154;2024-03-08T05:09:20;101277.75;;;6.81;86.22
70407;BME280;57821;52.202;0.154;2024-03-08T05:11:52;101282.91;;;6.81;85.26
70407;BME280;57821;52.202;0.154;2024-03-08T05:14:19;101268.25;;;6.78;85.97
70407;BME280;57821;52.202;0.154;2024-03-08T05:16:47;101274.31;;;6.82;85.46
70407;BME280;57821;52.202;0.154;2024-03-08T05:19:17;101281.22;;;6.83;85.21
70407;BME280;57821;52.202;0.154;2024-03-08T05:21:45;101271.75;;;6.80;84.87
70407;BME280;57821;52.202;0.154;2024-03-08T05:24:12;101277.81;;;6.84;84.97
70407;BME280;57821;52.202;0.154;2024-03-08T05:26:41;101272.66;;;6.84;84.74
70407;BME280;57821;52.202;0.154;2024-03-08T05:29:08;101267.50;;;6.84;85.67
70407;BME280;57821;52.202;0.154;2024-03-08T05:31:45;101244.09;;;6.73;84.64
70407;BME280;57821;52.202;0.154;2024-03-08T05:34:13;101260.69;;;6.86;85.07
70407;BME280;57821;52.202;0.154;2024-03-08T05:36:41;101252.94;;;6.87;84.62
70407;BME280;57821;52.202;0.154;2024-03-08T05:39:11;101254.69;;;6.87;85.46
70407;BME280;57821;52.202;0.154;2024-03-08T05:41:40;101254.69;;;6.88;84.87
70407;BME280;57821;52.202;0.154;2024-03-08T05:44:08;101253.91;;;6.91;85.01
70407;BME280;57821;52.202;0.154;2024-03-08T05:46:35;101254.81;;;6.93;85.22
70407;BME280;57821;52.202;0.154;2024-03-08T05:49:05;101251.34;;;6.94;84.95
70407;BME280;57821;52.202;0.154;2024-03-08T05:51:33;101238.34;;;6.86;84.75
70407;BME280;57821;52.202;0.154;2024-03-08T05:54:04;101256.56;;;6.95;84.75
70407;BME280;57821;52.202;0.154;2024-03-08T05:56:38;101247.13;;;6.96;84.69
70407;BME280;57821;52.202;0.154;2024-03-08T05:59:05;101239.34;;;6.94;84.86
70407;BME280;57821;52.202;0.154;2024-03-08T06:01:31;101242.81;;;6.96;85.26
70407;BME280;57821;52.202;0.154;2024-03-08T06:03:58;101237.66;;;6.96;85.22
70407;BME280;57821;52.202;0.154;2024-03-08T06:06:25;101224.69;;;6.92;84.73
70407;BME280;57821;52.202;0.154;2024-03-08T06:08:52;101231.66;;;6.96;84.96
70407;BME280;57821;52.202;0.154;2024-03-08T06:11:20;101229.91;;;6.95;85.45
70407;BME280;57821;52.202;0.154;2024-03-08T06:13:47;101221.28;;;6.93;85.13
70407;BME280;57821;52.202;0.154;2024-03-08T06:16:14;101224.75;;;6.95;85.38
70407;BME280;57821;52.202;0.154;2024-03-08T06:18:41;101224.81;;;6.98;85.61
70407;BME280;57821;52.202;0.154;2024-03-08T06:21:08;101210.97;;;6.93;85.76
70407;BME280;57821;52.202;0.154;2024-03-08T06:23:39;101211.03;;;6.96;85.02
70407;BME280;57821;52.202;0.154;2024-03-08T06:26:07;101212.78;;;6.98;84.64
70407;BME280;57821;52.202;0.154;2024-03-08T06:28:34;101208.47;;;6.97;85.02
70407;BME280;57821;52.202;0.154;2024-03-08T06:31:02;101218.81;;;7.00;84.68
70407;BME280;57821;52.202;0.154;2024-03-08T06:33:29;101212.78;;;6.98;85.67
70407;BME280;57821;52.202;0.154;2024-03-08T06:35:57;101220.53;;;7.00;84.62
70407;BME280;57821;52.202;0.154;2024-03-08T06:38:24;101207.53;;;6.94;85.11
70407;BME280;57821;52.202;0.154;2024-03-08T06:40:52;101209.28;;;6.95;84.65
70407;BME280;57821;52.202;0.154;2024-03-08T06:43:19;101207.59;;;6.97;84.58
70407;BME280;57821;52.202;0.154;2024-03-08T06:45:46;101201.53;;;6.95;84.88
70407;BME280;57821;52.202;0.154;2024-03-08T06:48:19;101203.25;;;6.94;85.39
70407;BME280;57821;52.202;0.154;2024-03-08T06:50:47;101200.66;;;6.93;85.35
70407;BME280;57821;52.202;0.154;2024-03-08T06:53:14;101185.91;;;6.86;84.89
70407;BME280;57821;52.202;0.154;2024-03-08T06:55:43;101191.94;;;6.88;84.66
70407;BME280;57821;52.202;0.154;2024-03-08T06:58:11;101193.66;;;6.87;84.81
70407;BME280;57821;52.202;0.154;2024-03-08T07:00:37;101186.72;;;6.83;85.01
70407;BME280;57821;52.202;0.154;2024-03-08T07:03:07;101183.22;;;6.80;84.92
70407;BME280;57821;52.202;0.154;2024-03-08T07:05:34;101181.44;;;6.77;84.79
70407;BME280;57821;52.202;0.154;2024-03-08T07:08:01;101178.00;;;6.77;85.13
70407;BME280;57821;52.202;0.154;2024-03-08T07:10:28;101171.91;;;6.72;85.61
70407;BME280;57821;52.202;0.154;2024-03-08T07:12:55;101174.44;;;6.69;85.34
70407;BME280;57821;52.202;0.154;2024-03-08T07:15:22;101172.63;;;6.65;85.08
70407;BME280;57821;52.202;0.154;2024-03-08T07:17:50;101174.31;;;6.64;85.40
70407;BME280;57821;52.202;0.154;2024-03-08T07:20:19;101165.69;;;6.60;84.73
70407;BME280;57821;52.202;0.154;2024-03-08T07:22:46;101148.31;;;6.50;85.44
70407;BME280;57821;52.202;0.154;2024-03-08T07:25:20;101160.50;;;6.57;85.10
70407;BME280;57821;52.202;0.154;2024-03-08T07:27:50;101169.94;;;6.58;84.99
70407;BME280;57821;52.202;0.154;2024-03-08T07:30:25;101157.00;;;6.55;85.17
70407;BME280;57821;52.202;0.154;2024-03-08T07:33:11;101165.69;;;6.60;85.24
70407;BME280;57821;52.202;0.154;2024-03-08T07:35:41;101157.91;;;6.59;85.07
70407;BME280;57821;52.202;0.154;2024-03-08T07:38:12;101155.38;;;6.60;84.66
70407;BME280;57821;52.202;0.154;2024-03-08T07:40:39;101164.88;;;6.63;85.56
70407;BME280;57821;52.202;0.154;2024-03-08T07:43:08;101168.34;;;6.64;85.75
70407;BME280;57821;52.202;0.154;2024-03-08T07:45:34;101158.88;;;6.64;85.74
70407;BME280;57821;52.202;0.154;2024-03-08T07:48:03;101162.34;;;6.66;85.03
70407;BME280;57821;52.202;0.154;2024-03-08T07:50:30;101155.50;;;6.67;85.31
70407;BME280;57821;52.202;0.154;2024-03-08T07:53:00;101153.81;;;6.69;85.91
70407;BME280;57821;52.202;0.154;2024-03-08T07:55:29;101155.56;;;6.70;85.75
70407;BME280;57821;52.202;0.154;2024-03-08T07:57:58;101153.81;;;6.70;85.17
70407;BME280;57821;52.202;0.154;2024-03-08T08:00:24;101150.44;;;6.73;85.60
70407;BME280;57821;52.202;0.154;2024-03-08T08:02:54;101144.38;;;6.71;85.35
70407;BME280;57821;52.202;0.154;2024-03-08T08:05:20;101150.50;;;6.76;85.71
70407;BME280;57821;52.202;0.154;2024-03-08T08:07:47;101146.28;;;6.79;85.92
70407;BME280;57821;52.202;0.154;2024-03-08T08:10:18;101147.25;;;6.86;85.22
70407;BME280;57821;52.202;0.154;2024-03-08T08:12:52;101138.72;;;6.90;85.12
70407;BME280;57821;52.202;0.154;2024-03-08T08:15:19;101144.78;;;6.93;85.79
70407;BME280;57821;52.202;0.154;2024-03-08T08:17:46;101137.97;;;6.95;85.15
70407;BME280;57821;52.202;0.154;2024-03-08T08:20:16;101125.97;;;6.99;84.79
70407;BME280;57821;52.202;0.154;2024-03-08T08:22:44;101135.63;;;7.09;84.63
70407;BME280;57821;52.202;0.154;2024-03-08T08:25:12;101128.78;;;7.13;84.54
70407;BME280;57821;52.202;0.154;2024-03-08T08:27:39;101132.31;;;7.16;84.84
70407;BME280;57821;52.202;0.154;2024-03-08T08:30:06;101128.03;;;7.18;84.25
70407;BME280;57821;52.202;0.154;2024-03-08T08:32:35;101125.50;;;7.21;84.18
70407;BME280;57821;52.202;0.154;2024-03-08T08:35:11;101124.69;;;7.25;84.30
70407;BME280;57821;52.202;0.154;2024-03-08T08:37:39;101118.72;;;7.26;84.18
70407;BME280;57821;52.202;0.154;2024-03-08T08:40:06;101114.50;;;7.34;84.11
70407;BME280;57821;52.202;0.154;2024-03-08T08:42:37;101119.78;;;7.42;83.86
70407;BME280;57821;52.202;0.154;2024-03-08T08:45:06;101119.03;;;7.48;83.66
70407;BME280;57821;52.202;0.154;2024-03-08T08:47:43;101116.53;;;7.54;83.78
70407;BME280;57821;52.202;0.154;2024-03-08T08:50:12;101120.88;;;7.58;83.36
70407;BME280;57821;52.202;0.154;2024-03-08T08:52:39;101116.63;;;7.60;83.07
70407;BME280;57821;52.202;0.154;2024-03-08T08:55:07;101113.22;;;7.64;82.85
70407;BME280;57821;52.202;0.154;2024-03-08T08:57:34;101112.44;;;7.68;82.73
70407;BME280;57821;52.202;0.154;2024-03-08T09:00:02;101100.47;;;7.73;82.48
70407;BME280;57821;52.202;0.154;2024-03-08T09:02:34;101097.06;;;7.77;81.89
70407;BME280;57821;52.202;0.154;2024-03-08T09:05:01;101104.94;;;7.86;82.23
70407;BME280;57821;52.202;0.154;2024-03-08T09:07:28;101105.03;;;7.95;82.04
70407;BME280;57821;52.202;0.154;2024-03-08T09:09:55;101099.94;;;8.00;81.83
70407;BME280;57821;52.202;0.154;2024-03-08T09:12:25;101091.38;;;8.05;81.10
70407;BME280;57821;52.202;0.154;2024-03-08T09:14:51;101095.75;;;8.08;80.83
70407;BME280;57821;52.202;0.154;2024-03-08T09:17:18;101091.41;;;8.07;80.80
70407;BME280;57821;52.202;0.154;2024-03-08T09:19:47;101086.34;;;8.16;80.90
70407;BME280;57821;52.202;0.154;2024-03-08T09:22:17;101076.06;;;8.19;80.29
70407;BME280;57821;52.202;0.154;2024-03-08T09:24:45;101080.38;;;8.21;79.87
70407;BME280;57821;52.202;0.154;2024-03-08T09:27:12;101071.84;;;8.25;80.09
70407;BME280;57821;52.202;0.154;2024-03-08T09:29:40;101060.66;;;8.30;79.95
70407;BME280;57821;52.202;0.154;2024-03-08T09:32:07;101058.16;;;8.34;79.50
70407;BME280;57821;52.202;0.154;2024-03-08T09:34:34;101060.88;;;8.46;79.28
70407;BME280;57821;52.202;0.154;2024-03-08T09:37:04;101050.63;;;8.55;79.63
70407;BME280;57821;52.202;0.154;2024-03-08T09:39:31;101051.53;;;8.62;79.13
70407;BME280;57821;52.202;0.154;2024-03-08T09:42:00;101052.53;;;8.73;78.54
70407;BME280;57821;52.202;0.154;2024-03-08T09:44:27;101043.06;;;8.78;78.33
70407;BME280;57821;52.202;0.154;2024-03-08T09:46:55;101037.06;;;8.85;77.97
70407;BME280;57821;52.202;0.154;2024-03-08T09:49:25;101041.53;;;9.01;78.10
70407;BME280;57821;52.202;0.154;2024-03-08T09:51:51;101041.59;;;9.12;77.32
70407;BME280;57821;52.202;0.154;2024-03-08T09:54:19;101023.59;;;9.26;76.97
70407;BME280;57821;52.202;0.154;2024-03-08T09:56:51;101037.44;;;9.40;76.47
70407;BME280;57821;52.202;0.154;2024-03-08T09:59:18;101024.56;;;9.52;76.50
70407;BME280;57821;52.202;0.154;2024-03-08T10:02:13;101015.16;;;9.69;75.54
70407;BME280;57821;52.202;0.154;2024-03-08T10:04:41;101014.34;;;9.79;75.63
70407;BME280;57821;52.202;0.154;2024-03-08T10:07:09;101019.56;;;9.92;75.01
70407;BME280;57821;52.202;0.154;2024-03-08T10:09:35;101008.34;;;9.99;74.09
70407;BME280;57821;52.202;0.154;2024-03-08T10:12:02;101010.09;;;10.01;73.45
70407;BME280;57821;52.202;0.154;2024-03-08T10:14:30;100998.88;;;10.07;72.90
70407;BME280;57821;52.202;0.154;2024-03-08T10:16:57;100998.91;;;10.16;72.71
70407;BME280;57821;52.202;0.154;2024-03-08T10:19:27;100998.09;;;10.29;72.20
70407;BME280;57821;52.202;0.154;2024-03-08T10:21:58;100990.31;;;10.50;72.68
70407;BME280;57821;52.202;0.154;2024-03-08T10:24:26;100988.59;;;10.74;72.64
70407;BME280;57821;52.202;0.154;2024-03-08T10:26:53;100985.97;;;10.98;71.44
70407;BME280;57821;52.202;0.154;2024-03-08T10:29:20;100978.13;;;11.19;70.76
70407;BME280;57821;52.202;0.154;2024-03-08T10:31:47;100978.97;;;11.35;69.39
70407;BME280;57821;52.202;0.154;2024-03-08T10:34:14;100984.97;;;11.43;68.91
70407;BME280;57821;52.202;0.154;2024-03-08T10:36:41;100974.63;;;11.41;67.42
70407;BME280;57821;52.202;0.154;2024-03-08T10:39:21;100972.88;;;11.43;66.50
70407;BME280;57821;52.202;0.154;2024-03-08T10:41:58;100961.59;;;11.52;67.41
70407;BME280;57821;52.202;0.154;2024-03-08T10:47:03;100967.56;;;11.68;66.33
70407;BME280;57821;52.202;0.154;2024-03-08T10:49:54;100959.78;;;11.75;65.59
70407;BME280;57821;52.202;0.154;2024-03-08T10:52:21;100948.50;;;11.81;66.54
70407;BME280;57821;52.202;0.154;2024-03-08T10:54:49;100955.31;;;11.94;65.30
70407;BME280;57821;52.202;0.154;2024-03-08T10:57:18;100953.59;;;11.96;65.19
70407;BME280;57821;52.202;0.154;2024-03-08T10:59:50;100950.13;;;11.96;64.25
70407;BME280;57821;52.202;0.154;2024-03-08T11:02:20;100950.13;;;11.94;62.67
70407;BME280;57821;52.202;0.154;2024-03-08T11:04:48;100931.13;;;11.86;62.87
70407;BME280;57821;52.202;0.154;2024-03-08T11:07:16;100923.34;;;11.83;63.59
70407;BME280;57821;52.202;0.154;2024-03-08T11:09:45;100918.16;;;11.83;62.99
70407;BME280;57821;52.202;0.154;2024-03-08T11:14:53;100909.38;;;12.04;63.95
70407;BME280;57821;52.202;0.154;2024-03-08T11:17:42;100905.78;;;12.21;63.04
70407;BME280;57821;52.202;0.154;2024-03-08T11:20:12;100909.09;;;12.40;64.10
70407;BME280;57821;52.202;0.154;2024-03-08T11:23:00;100905.38;;;12.64;62.21
70407;BME280;57821;52.202;0.154;2024-03-08T11:25:39;100899.16;;;12.77;60.59
70407;BME280;57821;52.202;0.154;2024-03-08T11:28:20;100887.88;;;12.80;59.04
70407;BME280;57821;52.202;0.154;2024-03-08T11:33:29;100883.56;;;12.77;59.27
70407;BME280;57821;52.202;0.154;2024-03-08T11:36:25;100878.34;;;12.77;58.41
70407;BME280;57821;52.202;0.154;2024-03-08T11:38:52;100871.44;;;12.76;59.52
70407;BME280;57821;52.202;0.154;2024-03-08T11:41:22;100854.13;;;12.70;57.67
70407;BME280;57821;52.202;0.154;2024-03-08T11:44:02;100861.94;;;12.70;57.19
70407;BME280;57821;52.202;0.154;2024-03-08T11:46:31;100858.53;;;12.64;57.16
70407;BME280;57821;52.202;0.154;2024-03-08T11:48:59;100842.19;;;12.53;57.70
70407;BME280;57821;52.202;0.154;2024-03-08T11:51:27;100848.13;;;12.64;57.53
70407;BME280;57821;52.202;0.154;2024-03-08T11:53:54;100847.25;;;12.68;57.77
70407;BME280;57821;52.202;0.154;2024-03-08T11:56:22;100847.19;;;12.74;56.89
70407;BME280;57821;52.202;0.154;2024-03-08T11:58:56;100843.66;;;12.78;57.01
70407;BME280;57821;52.202;0.154;2024-03-08T12:01:28;100836.72;;;12.80;56.44
70407;BME280;57821;52.202;0.154;2024-03-08T12:03:57;100833.25;;;12.80;55.38
70407;BME280;57821;52.202;0.154;2024-03-08T12:06:26;100831.50;;;12.80;55.53
70407;BME280;57821;52.202;0.154;2024-03-08T12:08:53;100819.38;;;12.81;55.37
70407;BME280;57821;52.202;0.154;2024-03-08T12:11:20;100821.91;;;12.84;55.19
70407;BME280;57821;52.202;0.154;2024-03-08T12:13:51;100813.22;;;12.85;55.16
70407;BME280;57821;52.202;0.154;2024-03-08T12:16:18;100808.84;;;12.88;54.33
70407;BME280;57821;52.202;0.154;2024-03-08T12:18:46;100801.91;;;12.87;52.79
70407;BME280;57821;52.202;0.154;2024-03-08T12:21:13;100799.38;;;12.83;52.68
70407;BME280;57821;52.202;0.154;2024-03-08T12:23:44;100797.75;;;12.74;52.58
70407;BME280;57821;52.202;0.154;2024-03-08T12:26:15;100789.97;;;12.71;52.46
70407;BME280;57821;52.202;0.154;2024-03-08T12:28:43;100784.75;;;12.74;52.39
70407;BME280;57821;52.202;0.154;2024-03-08T12:31:16;100782.16;;;12.72;51.39
70407;BME280;57821;52.202;0.154;2024-03-08T12:33:54;100772.56;;;12.76;52.78
70407;BME280;57821;52.202;0.154;2024-03-08T12:36:23;100773.25;;;12.90;52.92
70407;BME280;57821;52.202;0.154;2024-03-08T12:38:51;100760.03;;;13.05;52.91
70407;BME280;57821;52.202;0.154;2024-03-08T12:41:20;100766.03;;;13.15;52.01
70407;BME280;57821;52.202;0.154;2024-03-08T12:43:48;100762.38;;;13.27;51.05
70407;BME280;57821;52.202;0.154;2024-03-08T12:46:19;100757.09;;;13.31;51.27
70407;BME280;57821;52.202;0.154;2024-03-08T12:48:49;100757.88;;;13.36;51.39
70407;BME280;57821;52.202;0.154;2024-03-08T12:51:20;100763.09;;;13.38;50.66
70407;BME280;57821;52.202;0.154;2024-03-08T12:53:47;100750.97;;;13.34;49.91
70407;BME280;57821;52.202;0.154;2024-03-08T12:56:20;100744.84;;;13.39;51.69
70407;BME280;57821;52.202;0.154;2024-03-08T12:58:54;100740.31;;;13.50;50.89
70407;BME280;57821;52.202;0.154;2024-03-08T13:01:22;100741.03;;;13.58;50.85
70407;BME280;57821;52.202;0.154;2024-03-08T13:03:49;100746.22;;;13.60;50.20
70407;BME280;57821;52.202;0.154;2024-03-08T13:06:16;100732.34;;;13.60;50.40
70407;BME280;57821;52.202;0.154;2024-03-08T13:08:42;100726.25;;;13.62;50.29
70407;BME280;57821;52.202;0.154;2024-03-08T13:11:11;100719.13;;;13.70;50.15
70407;BME280;57821;52.202;0.154;2024-03-08T13:13:38;100723.34;;;13.77;49.56